KCRX

Roscoe Turner Airport

Corinth, Mississippi, USA
METAR KCRX 241435Z AUTO 23007KT 10SM CLR 27/24 A2998 RMK AO2
Observed Flight Rules
Jun-24 @ 14:35 UTC (29 minutes ago) Visual Flight Rules
Wind Visibility Clouds
230° at 7 knots 10 miles
  • Clear skies
Temperatures Readings
Current 27°C / 81°F
Dewpoint 24°C / 75°F
Humidity 84%
Altimeter 29.98" Hg
Pressure 1015 hPa
Elevation 130
METAR KCRX 241435Z AUTO 23007KT 10SM CLR 27/24 A2998 RMK AO2
Observed Flight Rules
Jun-24 @ 14:35 UTC
(29 minutes ago)
VFR
Wind Visibility
230° at 7 knots 10 miles
Clouds
  • Clear skies
Temperature Dewpoint
27°C / 81°F 24°C / 75°F
Humidity Altimeter Pressure
84% 29.98" Hg 1015 hPa